sensor_id;sensor_type;location;lat;lon;timestamp;P1;durP1;ratioP1;P2;durP2;ratioP2
66707;SDS011;53622;0.000;0.000;2023-07-08T00:01:19;6.32;;;3.90;;
66707;SDS011;53622;0.000;0.000;2023-07-08T00:03:49;6.25;;;4.07;;
66707;SDS011;53622;0.000;0.000;2023-07-08T00:06:19;6.55;;;4.43;;
66707;SDS011;53622;0.000;0.000;2023-07-08T00:08:50;9.23;;;4.78;;
66707;SDS011;53622;0.000;0.000;2023-07-08T00:11:19;7.85;;;4.60;;
66707;SDS011;53622;0.000;0.000;2023-07-08T00:13:50;6.93;;;4.35;;
66707;SDS011;53622;0.000;0.000;2023-07-08T00:16:19;6.25;;;4.05;;
66707;SDS011;53622;0.000;0.000;2023-07-08T00:18:48;8.43;;;4.68;;
66707;SDS011;53622;0.000;0.000;2023-07-08T00:21:18;7.15;;;4.45;;
66707;SDS011;53622;0.000;0.000;2023-07-08T00:23:47;7.22;;;4.20;;
66707;SDS011;53622;0.000;0.000;2023-07-08T00:26:18;9.95;;;4.35;;
66707;SDS011;53622;0.000;0.000;2023-07-08T00:28:53;6.60;;;4.28;;
66707;SDS011;53622;0.000;0.000;2023-07-08T00:31:23;8.88;;;4.90;;
66707;SDS011;53622;0.000;0.000;2023-07-08T00:33:54;6.45;;;3.75;;
66707;SDS011;53622;0.000;0.000;2023-07-08T00:36:25;6.90;;;4.70;;
66707;SDS011;53622;0.000;0.000;2023-07-08T00:38:55;5.40;;;4.30;;
66707;SDS011;53622;0.000;0.000;2023-07-08T00:41:25;6.32;;;4.43;;
66707;SDS011;53622;0.000;0.000;2023-07-08T00:43:59;5.45;;;4.40;;
66707;SDS011;53622;0.000;0.000;2023-07-08T00:46:34;7.05;;;4.65;;
66707;SDS011;53622;0.000;0.000;2023-07-08T00:49:17;8.07;;;4.47;;
66707;SDS011;53622;0.000;0.000;2023-07-08T00:51:55;7.10;;;4.50;;
66707;SDS011;53622;0.000;0.000;2023-07-08T00:54:24;7.28;;;4.05;;
66707;SDS011;53622;0.000;0.000;2023-07-08T00:56:54;6.93;;;4.93;;
66707;SDS011;53622;0.000;0.000;2023-07-08T00:59:28;6.57;;;4.18;;
66707;SDS011;53622;0.000;0.000;2023-07-08T01:02:01;7.88;;;4.38;;
66707;SDS011;53622;0.000;0.000;2023-07-08T01:04:37;8.55;;;4.68;;
66707;SDS011;53622;0.000;0.000;2023-07-08T01:07:10;6.07;;;4.43;;
66707;SDS011;53622;0.000;0.000;2023-07-08T01:09:41;7.60;;;4.22;;
66707;SDS011;53622;0.000;0.000;2023-07-08T01:12:14;5.93;;;4.05;;
66707;SDS011;53622;0.000;0.000;2023-07-08T01:14:50;7.10;;;3.85;;
66707;SDS011;53622;0.000;0.000;2023-07-08T01:17:22;7.15;;;4.18;;
66707;SDS011;53622;0.000;0.000;2023-07-08T01:19:51;8.40;;;4.13;;
66707;SDS011;53622;0.000;0.000;2023-07-08T01:22:24;8.75;;;4.47;;
66707;SDS011;53622;0.000;0.000;2023-07-08T01:25:00;6.70;;;4.15;;
66707;SDS011;53622;0.000;0.000;2023-07-08T01:27:31;8.70;;;4.65;;
66707;SDS011;53622;0.000;0.000;2023-07-08T01:30:04;7.40;;;4.65;;
66707;SDS011;53622;0.000;0.000;2023-07-08T01:32:35;8.30;;;4.55;;
66707;SDS011;53622;0.000;0.000;2023-07-08T01:35:08;6.45;;;4.35;;
66707;SDS011;53622;0.000;0.000;2023-07-08T01:37:42;6.05;;;4.10;;
66707;SDS011;53622;0.000;0.000;2023-07-08T01:40:16;6.50;;;4.60;;
66707;SDS011;53622;0.000;0.000;2023-07-08T01:42:52;6.93;;;4.43;;
66707;SDS011;53622;0.000;0.000;2023-07-08T01:45:22;11.18;;;4.40;;
66707;SDS011;53622;0.000;0.000;2023-07-08T01:47:55;6.85;;;4.28;;
66707;SDS011;53622;0.000;0.000;2023-07-08T01:50:26;10.13;;;4.68;;
66707;SDS011;53622;0.000;0.000;2023-07-08T01:52:59;6.90;;;4.38;;
66707;SDS011;53622;0.000;0.000;2023-07-08T01:55:31;7.47;;;4.63;;
66707;SDS011;53622;0.000;0.000;2023-07-08T01:58:00;6.18;;;4.13;;
66707;SDS011;53622;0.000;0.000;2023-07-08T02:00:29;6.75;;;4.43;;
66707;SDS011;53622;0.000;0.000;2023-07-08T02:02:59;6.88;;;3.97;;
66707;SDS011;53622;0.000;0.000;2023-07-08T02:05:28;4.90;;;4.18;;
66707;SDS011;53622;0.000;0.000;2023-07-08T02:07:59;8.15;;;4.13;;
66707;SDS011;53622;0.000;0.000;2023-07-08T02:10:28;7.97;;;4.30;;
66707;SDS011;53622;0.000;0.000;2023-07-08T02:13:00;6.20;;;4.25;;
66707;SDS011;53622;0.000;0.000;2023-07-08T02:15:29;5.18;;;3.80;;
66707;SDS011;53622;0.000;0.000;2023-07-08T02:17:59;6.18;;;4.40;;
66707;SDS011;53622;0.000;0.000;2023-07-08T02:20:29;6.95;;;4.30;;
66707;SDS011;53622;0.000;0.000;2023-07-08T02:22:59;8.15;;;4.93;;
66707;SDS011;53622;0.000;0.000;2023-07-08T02:25:28;6.20;;;4.07;;
66707;SDS011;53622;0.000;0.000;2023-07-08T02:27:58;7.05;;;4.28;;
66707;SDS011;53622;0.000;0.000;2023-07-08T02:30:27;15.70;;;3.83;;
66707;SDS011;53622;0.000;0.000;2023-07-08T02:32:56;6.55;;;4.30;;
66707;SDS011;53622;0.000;0.000;2023-07-08T02:35:26;7.85;;;3.92;;
66707;SDS011;53622;0.000;0.000;2023-07-08T02:37:57;8.85;;;4.68;;
66707;SDS011;53622;0.000;0.000;2023-07-08T02:40:27;7.25;;;4.15;;
66707;SDS011;53622;0.000;0.000;2023-07-08T02:42:57;7.75;;;4.70;;
66707;SDS011;53622;0.000;0.000;2023-07-08T02:45:26;6.30;;;4.30;;
66707;SDS011;53622;0.000;0.000;2023-07-08T02:47:55;7.30;;;4.32;;
66707;SDS011;53622;0.000;0.000;2023-07-08T02:50:25;7.22;;;4.40;;
66707;SDS011;53622;0.000;0.000;2023-07-08T02:52:54;4.57;;;3.65;;
66707;SDS011;53622;0.000;0.000;2023-07-08T02:55:23;7.68;;;4.45;;
66707;SDS011;53622;0.000;0.000;2023-07-08T02:57:54;6.88;;;4.30;;
66707;SDS011;53622;0.000;0.000;2023-07-08T03:00:23;7.35;;;4.75;;
66707;SDS011;53622;0.000;0.000;2023-07-08T03:02:52;5.63;;;4.25;;
66707;SDS011;53622;0.000;0.000;2023-07-08T03:05:22;9.60;;;4.32;;
66707;SDS011;53622;0.000;0.000;2023-07-08T03:07:51;7.00;;;4.72;;
66707;SDS011;53622;0.000;0.000;2023-07-08T03:10:20;5.55;;;4.43;;
66707;SDS011;53622;0.000;0.000;2023-07-08T03:12:49;6.95;;;4.35;;
66707;SDS011;53622;0.000;0.000;2023-07-08T03:15:20;7.60;;;4.53;;
66707;SDS011;53622;0.000;0.000;2023-07-08T03:17:49;5.38;;;3.97;;
66707;SDS011;53622;0.000;0.000;2023-07-08T03:20:21;8.05;;;4.53;;
66707;SDS011;53622;0.000;0.000;2023-07-08T03:22:50;7.68;;;4.15;;
66707;SDS011;53622;0.000;0.000;2023-07-08T03:25:19;10.65;;;3.83;;
66707;SDS011;53622;0.000;0.000;2023-07-08T03:27:51;7.03;;;4.35;;
66707;SDS011;53622;0.000;0.000;2023-07-08T03:30:24;5.78;;;3.90;;
66707;SDS011;53622;0.000;0.000;2023-07-08T03:32:55;10.40;;;4.43;;
66707;SDS011;53622;0.000;0.000;2023-07-08T03:35:24;6.38;;;4.40;;
66707;SDS011;53622;0.000;0.000;2023-07-08T03:37:53;6.43;;;3.90;;
66707;SDS011;53622;0.000;0.000;2023-07-08T03:40:23;7.28;;;4.00;;
66707;SDS011;53622;0.000;0.000;2023-07-08T03:42:52;10.68;;;4.45;;
66707;SDS011;53622;0.000;0.000;2023-07-08T03:45:22;9.18;;;4.20;;
66707;SDS011;53622;0.000;0.000;2023-07-08T03:47:53;6.75;;;4.30;;
66707;SDS011;53622;0.000;0.000;2023-07-08T03:50:23;7.60;;;3.65;;
66707;SDS011;53622;0.000;0.000;2023-07-08T03:52:54;7.50;;;4.18;;
66707;SDS011;53622;0.000;0.000;2023-07-08T03:55:27;10.07;;;4.32;;
66707;SDS011;53622;0.000;0.000;2023-07-08T03:57:58;7.07;;;4.18;;
66707;SDS011;53622;0.000;0.000;2023-07-08T04:00:30;6.28;;;3.92;;
66707;SDS011;53622;0.000;0.000;2023-07-08T04:03:02;7.60;;;4.25;;
66707;SDS011;53622;0.000;0.000;2023-07-08T04:05:32;7.32;;;4.25;;
66707;SDS011;53622;0.000;0.000;2023-07-08T04:08:02;5.07;;;3.88;;
66707;SDS011;53622;0.000;0.000;2023-07-08T04:10:31;7.88;;;4.25;;
66707;SDS011;53622;0.000;0.000;2023-07-08T04:13:01;5.53;;;3.85;;
66707;SDS011;53622;0.000;0.000;2023-07-08T04:15:30;7.85;;;4.07;;
66707;SDS011;53622;0.000;0.000;2023-07-08T04:17:59;6.72;;;4.10;;
66707;SDS011;53622;0.000;0.000;2023-07-08T04:20:30;4.93;;;3.88;;
66707;SDS011;53622;0.000;0.000;2023-07-08T04:23:00;5.70;;;4.18;;
66707;SDS011;53622;0.000;0.000;2023-07-08T04:25:29;6.50;;;3.80;;
66707;SDS011;53622;0.000;0.000;2023-07-08T04:27:59;7.68;;;4.03;;
66707;SDS011;53622;0.000;0.000;2023-07-08T04:30:28;6.38;;;3.85;;
66707;SDS011;53622;0.000;0.000;2023-07-08T04:32:57;5.68;;;4.03;;
66707;SDS011;53622;0.000;0.000;2023-07-08T04:35:27;6.68;;;3.88;;
66707;SDS011;53622;0.000;0.000;2023-07-08T04:37:58;7.32;;;4.30;;
66707;SDS011;53622;0.000;0.000;2023-07-08T04:40:28;6.20;;;3.80;;
66707;SDS011;53622;0.000;0.000;2023-07-08T04:42:58;8.55;;;4.18;;
66707;SDS011;53622;0.000;0.000;2023-07-08T04:45:27;7.38;;;4.07;;
66707;SDS011;53622;0.000;0.000;2023-07-08T04:47:57;5.10;;;3.60;;
66707;SDS011;53622;0.000;0.000;2023-07-08T04:50:26;5.18;;;3.33;;
66707;SDS011;53622;0.000;0.000;2023-07-08T04:52:55;5.03;;;4.10;;
66707;SDS011;53622;0.000;0.000;2023-07-08T04:55:26;9.07;;;4.05;;
66707;SDS011;53622;0.000;0.000;2023-07-08T04:57:55;4.65;;;3.30;;
66707;SDS011;53622;0.000;0.000;2023-07-08T05:00:24;5.35;;;3.97;;
66707;SDS011;53622;0.000;0.000;2023-07-08T05:02:54;7.28;;;3.90;;
66707;SDS011;53622;0.000;0.000;2023-07-08T05:05:23;9.13;;;4.28;;
66707;SDS011;53622;0.000;0.000;2023-07-08T05:07:53;5.95;;;4.03;;
66707;SDS011;53622;0.000;0.000;2023-07-08T05:10:24;4.93;;;3.67;;
66707;SDS011;53622;0.000;0.000;2023-07-08T05:12:53;7.70;;;4.25;;
66707;SDS011;53622;0.000;0.000;2023-07-08T05:15:22;10.15;;;4.40;;
66707;SDS011;53622;0.000;0.000;2023-07-08T05:17:52;5.40;;;4.07;;
66707;SDS011;53622;0.000;0.000;2023-07-08T05:20:21;7.10;;;3.65;;
66707;SDS011;53622;0.000;0.000;2023-07-08T05:22:50;9.93;;;4.20;;
66707;SDS011;53622;0.000;0.000;2023-07-08T05:25:20;8.95;;;4.25;;
66707;SDS011;53622;0.000;0.000;2023-07-08T05:27:51;8.68;;;4.30;;
66707;SDS011;53622;0.000;0.000;2023-07-08T05:30:20;6.18;;;4.20;;
66707;SDS011;53622;0.000;0.000;2023-07-08T05:32:49;6.80;;;4.10;;
66707;SDS011;53622;0.000;0.000;2023-07-08T05:35:18;7.38;;;4.50;;
66707;SDS011;53622;0.000;0.000;2023-07-08T05:37:48;6.03;;;4.20;;
66707;SDS011;53622;0.000;0.000;2023-07-08T05:40:17;8.45;;;4.38;;
66707;SDS011;53622;0.000;0.000;2023-07-08T05:42:46;5.95;;;4.18;;
66707;SDS011;53622;0.000;0.000;2023-07-08T05:45:17;7.55;;;4.03;;
66707;SDS011;53622;0.000;0.000;2023-07-08T05:47:46;9.60;;;4.72;;
66707;SDS011;53622;0.000;0.000;2023-07-08T05:50:16;10.88;;;4.70;;
66707;SDS011;53622;0.000;0.000;2023-07-08T05:52:45;7.15;;;4.60;;
66707;SDS011;53622;0.000;0.000;2023-07-08T05:55:14;15.80;;;4.32;;
66707;SDS011;53622;0.000;0.000;2023-07-08T05:57:44;8.88;;;3.95;;
66707;SDS011;53622;0.000;0.000;2023-07-08T06:00:13;6.93;;;4.18;;
66707;SDS011;53622;0.000;0.000;2023-07-08T06:03:01;8.30;;;4.03;;
66707;SDS011;53622;0.000;0.000;2023-07-08T06:05:30;7.60;;;4.10;;
66707;SDS011;53622;0.000;0.000;2023-07-08T06:08:00;5.72;;;4.10;;
66707;SDS011;53622;0.000;0.000;2023-07-08T06:10:30;10.77;;;4.38;;
66707;SDS011;53622;0.000;0.000;2023-07-08T06:12:59;7.50;;;4.20;;
66707;SDS011;53622;0.000;0.000;2023-07-08T06:15:28;5.72;;;4.55;;
66707;SDS011;53622;0.000;0.000;2023-07-08T06:17:57;7.88;;;4.30;;
66707;SDS011;53622;0.000;0.000;2023-07-08T06:20:31;5.07;;;4.00;;
66707;SDS011;53622;0.000;0.000;2023-07-08T06:23:00;6.07;;;4.32;;
66707;SDS011;53622;0.000;0.000;2023-07-08T06:25:31;6.85;;;4.32;;
66707;SDS011;53622;0.000;0.000;2023-07-08T06:28:01;7.05;;;4.18;;
66707;SDS011;53622;0.000;0.000;2023-07-08T06:30:30;8.18;;;4.45;;
66707;SDS011;53622;0.000;0.000;2023-07-08T06:32:59;6.40;;;4.07;;
66707;SDS011;53622;0.000;0.000;2023-07-08T06:35:30;7.82;;;3.95;;
66707;SDS011;53622;0.000;0.000;2023-07-08T06:38:00;7.80;;;3.95;;
66707;SDS011;53622;0.000;0.000;2023-07-08T06:40:29;10.38;;;4.30;;
66707;SDS011;53622;0.000;0.000;2023-07-08T06:42:58;7.43;;;4.22;;
66707;SDS011;53622;0.000;0.000;2023-07-08T06:45:43;8.68;;;4.05;;
66707;SDS011;53622;0.000;0.000;2023-07-08T06:48:12;10.10;;;4.30;;
66707;SDS011;53622;0.000;0.000;2023-07-08T06:50:45;7.60;;;4.40;;
66707;SDS011;53622;0.000;0.000;2023-07-08T06:53:14;7.03;;;4.35;;
66707;SDS011;53622;0.000;0.000;2023-07-08T06:55:44;10.80;;;4.60;;
66707;SDS011;53622;0.000;0.000;2023-07-08T06:58:14;7.03;;;4.30;;
66707;SDS011;53622;0.000;0.000;2023-07-08T07:00:43;13.13;;;4.57;;
66707;SDS011;53622;0.000;0.000;2023-07-08T07:03:13;9.50;;;4.78;;
66707;SDS011;53622;0.000;0.000;2023-07-08T07:05:44;6.55;;;3.65;;
66707;SDS011;53622;0.000;0.000;2023-07-08T07:08:15;8.23;;;4.32;;
66707;SDS011;53622;0.000;0.000;2023-07-08T07:10:44;8.85;;;4.57;;
66707;SDS011;53622;0.000;0.000;2023-07-08T07:13:13;7.15;;;4.60;;
66707;SDS011;53622;0.000;0.000;2023-07-08T07:15:42;7.40;;;4.50;;
66707;SDS011;53622;0.000;0.000;2023-07-08T07:18:16;10.15;;;4.35;;
66707;SDS011;53622;0.000;0.000;2023-07-08T07:20:53;7.07;;;4.57;;
66707;SDS011;53622;0.000;0.000;2023-07-08T07:23:23;8.10;;;4.50;;
66707;SDS011;53622;0.000;0.000;2023-07-08T07:25:52;6.45;;;4.28;;
66707;SDS011;53622;0.000;0.000;2023-07-08T07:28:21;10.67;;;4.53;;
66707;SDS011;53622;0.000;0.000;2023-07-08T07:30:55;8.85;;;4.10;;
66707;SDS011;53622;0.000;0.000;2023-07-08T07:33:26;7.88;;;4.03;;
66707;SDS011;53622;0.000;0.000;2023-07-08T07:35:57;7.80;;;4.57;;
66707;SDS011;53622;0.000;0.000;2023-07-08T07:38:27;7.65;;;3.63;;
66707;SDS011;53622;0.000;0.000;2023-07-08T07:40:56;10.38;;;4.22;;
66707;SDS011;53622;0.000;0.000;2023-07-08T07:43:27;7.32;;;4.05;;
66707;SDS011;53622;0.000;0.000;2023-07-08T07:45:56;8.18;;;4.20;;
66707;SDS011;53622;0.000;0.000;2023-07-08T07:48:26;9.35;;;4.18;;
66707;SDS011;53622;0.000;0.000;2023-07-08T07:50:57;6.07;;;4.00;;
66707;SDS011;53622;0.000;0.000;2023-07-08T07:53:26;9.25;;;4.00;;
66707;SDS011;53622;0.000;0.000;2023-07-08T07:55:56;5.07;;;3.78;;
66707;SDS011;53622;0.000;0.000;2023-07-08T07:58:26;9.50;;;4.50;;
66707;SDS011;53622;0.000;0.000;2023-07-08T08:00:56;8.48;;;3.92;;
66707;SDS011;53622;0.000;0.000;2023-07-08T08:03:26;4.68;;;3.90;;
66707;SDS011;53622;0.000;0.000;2023-07-08T08:05:57;8.90;;;4.20;;
66707;SDS011;53622;0.000;0.000;2023-07-08T08:08:26;10.70;;;3.97;;
66707;SDS011;53622;0.000;0.000;2023-07-08T08:10:56;6.55;;;4.28;;
66707;SDS011;53622;0.000;0.000;2023-07-08T08:13:25;10.20;;;4.53;;
66707;SDS011;53622;0.000;0.000;2023-07-08T08:15:57;8.77;;;3.97;;
66707;SDS011;53622;0.000;0.000;2023-07-08T08:18:28;6.45;;;4.15;;
66707;SDS011;53622;0.000;0.000;2023-07-08T08:20:59;7.85;;;3.95;;
66707;SDS011;53622;0.000;0.000;2023-07-08T08:23:28;6.03;;;4.00;;
66707;SDS011;53622;0.000;0.000;2023-07-08T08:25:58;7.03;;;4.20;;
66707;SDS011;53622;0.000;0.000;2023-07-08T08:28:27;10.93;;;4.30;;
66707;SDS011;53622;0.000;0.000;2023-07-08T08:30:57;7.20;;;3.75;;
66707;SDS011;53622;0.000;0.000;2023-07-08T08:33:27;8.88;;;3.90;;
66707;SDS011;53622;0.000;0.000;2023-07-08T08:35:56;6.40;;;3.92;;
66707;SDS011;53622;0.000;0.000;2023-07-08T08:38:27;8.00;;;3.90;;
66707;SDS011;53622;0.000;0.000;2023-07-08T08:40:56;6.20;;;3.75;;
66707;SDS011;53622;0.000;0.000;2023-07-08T08:43:34;8.52;;;3.97;;
66707;SDS011;53622;0.000;0.000;2023-07-08T08:46:08;6.80;;;4.05;;
66707;SDS011;53622;0.000;0.000;2023-07-08T08:48:43;7.43;;;3.78;;
66707;SDS011;53622;0.000;0.000;2023-07-08T08:51:20;6.20;;;4.03;;
66707;SDS011;53622;0.000;0.000;2023-07-08T08:53:51;5.38;;;3.83;;
66707;SDS011;53622;0.000;0.000;2023-07-08T08:56:25;4.93;;;3.90;;
66707;SDS011;53622;0.000;0.000;2023-07-08T08:58:58;7.32;;;3.78;;
66707;SDS011;53622;0.000;0.000;2023-07-08T09:01:32;11.15;;;4.28;;
66707;SDS011;53622;0.000;0.000;2023-07-08T09:04:05;6.63;;;4.03;;
66707;SDS011;53622;0.000;0.000;2023-07-08T09:06:39;5.68;;;3.60;;
66707;SDS011;53622;0.000;0.000;2023-07-08T09:09:12;8.23;;;4.32;;
66707;SDS011;53622;0.000;0.000;2023-07-08T09:11:48;6.78;;;3.95;;
66707;SDS011;53622;0.000;0.000;2023-07-08T09:14:24;6.10;;;3.90;;
66707;SDS011;53622;0.000;0.000;2023-07-08T09:16:56;6.38;;;3.70;;
66707;SDS011;53622;0.000;0.000;2023-07-08T09:19:39;9.48;;;4.10;;
66707;SDS011;53622;0.000;0.000;2023-07-08T09:22:13;8.52;;;3.83;;
66707;SDS011;53622;0.000;0.000;2023-07-08T09:24:48;8.25;;;3.95;;
66707;SDS011;53622;0.000;0.000;2023-07-08T09:27:20;5.90;;;3.80;;
66707;SDS011;53622;0.000;0.000;2023-07-08T09:29:50;7.05;;;3.88;;
66707;SDS011;53622;0.000;0.000;2023-07-08T09:32:26;7.50;;;4.00;;
66707;SDS011;53622;0.000;0.000;2023-07-08T09:35:02;7.28;;;4.05;;
66707;SDS011;53622;0.000;0.000;2023-07-08T09:37:34;8.77;;;3.63;;
66707;SDS011;53622;0.000;0.000;2023-07-08T09:40:14;6.38;;;3.92;;
66707;SDS011;53622;0.000;0.000;2023-07-08T09:42:46;8.52;;;3.72;;
66707;SDS011;53622;0.000;0.000;2023-07-08T09:45:19;7.13;;;3.53;;
66707;SDS011;53622;0.000;0.000;2023-07-08T09:47:52;6.97;;;3.80;;
66707;SDS011;53622;0.000;0.000;2023-07-08T09:50:22;6.43;;;3.85;;
66707;SDS011;53622;0.000;0.000;2023-07-08T09:52:54;8.45;;;3.90;;
66707;SDS011;53622;0.000;0.000;2023-07-08T09:55:28;7.45;;;4.03;;
66707;SDS011;53622;0.000;0.000;2023-07-08T09:57:58;9.25;;;3.90;;
66707;SDS011;53622;0.000;0.000;2023-07-08T10:00:33;6.13;;;3.70;;
66707;SDS011;53622;0.000;0.000;2023-07-08T10:03:11;6.65;;;3.72;;
66707;SDS011;53622;0.000;0.000;2023-07-08T10:05:46;5.82;;;3.50;;
66707;SDS011;53622;0.000;0.000;2023-07-08T10:08:18;6.97;;;3.78;;
66707;SDS011;53622;0.000;0.000;2023-07-08T10:10:52;9.10;;;3.75;;
66707;SDS011;53622;0.000;0.000;2023-07-08T10:13:28;8.48;;;3.38;;
66707;SDS011;53622;0.000;0.000;2023-07-08T10:16:14;5.05;;;3.38;;
66707;SDS011;53622;0.000;0.000;2023-07-08T10:18:45;8.30;;;3.88;;
66707;SDS011;53622;0.000;0.000;2023-07-08T10:21:17;6.47;;;3.50;;
66707;SDS011;53622;0.000;0.000;2023-07-08T10:23:56;6.25;;;3.00;;
66707;SDS011;53622;0.000;0.000;2023-07-08T10:26:31;5.30;;;3.22;;
66707;SDS011;53622;0.000;0.000;2023-07-08T10:29:07;8.25;;;3.40;;
66707;SDS011;53622;0.000;0.000;2023-07-08T10:31:45;6.50;;;3.58;;
66707;SDS011;53622;0.000;0.000;2023-07-08T10:34:23;5.72;;;3.70;;
66707;SDS011;53622;0.000;0.000;2023-07-08T10:37:03;6.53;;;3.40;;
66707;SDS011;53622;0.000;0.000;2023-07-08T10:42:46;5.03;;;3.28;;
66707;SDS011;53622;0.000;0.000;2023-07-08T10:45:31;5.07;;;2.97;;
66707;SDS011;53622;0.000;0.000;2023-07-08T10:48:13;7.00;;;3.80;;
66707;SDS011;53622;0.000;0.000;2023-07-08T10:50:56;9.00;;;3.85;;
66707;SDS011;53622;0.000;0.000;2023-07-08T10:53:42;5.93;;;3.53;;
66707;SDS011;53622;0.000;0.000;2023-07-08T10:56:27;7.68;;;3.70;;
66707;SDS011;53622;0.000;0.000;2023-07-08T11:02:11;5.63;;;3.38;;
66707;SDS011;53622;0.000;0.000;2023-07-08T11:04:58;8.23;;;3.67;;
66707;SDS011;53622;0.000;0.000;2023-07-08T11:07:41;5.30;;;3.50;;
66707;SDS011;53622;0.000;0.000;2023-07-08T11:10:15;7.40;;;3.38;;
66707;SDS011;53622;0.000;0.000;2023-07-08T11:12:49;3.63;;;3.28;;
66707;SDS011;53622;0.000;0.000;2023-07-08T11:15:25;5.28;;;3.60;;
66707;SDS011;53622;0.000;0.000;2023-07-08T11:18:01;5.47;;;2.80;;
66707;SDS011;53622;0.000;0.000;2023-07-08T11:20:36;5.57;;;3.47;;
66707;SDS011;53622;0.000;0.000;2023-07-08T11:23:16;6.15;;;3.50;;
66707;SDS011;53622;0.000;0.000;2023-07-08T11:26:00;5.38;;;3.63;;
66707;SDS011;53622;0.000;0.000;2023-07-08T11:28:36;5.40;;;3.53;;
66707;SDS011;53622;0.000;0.000;2023-07-08T11:31:06;4.70;;;3.63;;
66707;SDS011;53622;0.000;0.000;2023-07-08T11:33:37;5.03;;;3.60;;
66707;SDS011;53622;0.000;0.000;2023-07-08T11:36:08;4.88;;;3.80;;
66707;SDS011;53622;0.000;0.000;2023-07-08T11:38:44;6.53;;;3.65;;
66707;SDS011;53622;0.000;0.000;2023-07-08T11:41:20;4.68;;;3.50;;
66707;SDS011;53622;0.000;0.000;2023-07-08T11:44:02;5.68;;;3.65;;
66707;SDS011;53622;0.000;0.000;2023-07-08T11:46:59;5.75;;;3.65;;
66707;SDS011;53622;0.000;0.000;2023-07-08T11:49:29;5.15;;;3.50;;
66707;SDS011;53622;0.000;0.000;2023-07-08T11:52:04;5.88;;;3.15;;
66707;SDS011;53622;0.000;0.000;2023-07-08T11:54:34;4.90;;;3.70;;
66707;SDS011;53622;0.000;0.000;2023-07-08T11:57:14;6.32;;;3.53;;
66707;SDS011;53622;0.000;0.000;2023-07-08T11:59:47;4.82;;;3.28;;
66707;SDS011;53622;0.000;0.000;2023-07-08T12:02:33;4.60;;;3.20;;
66707;SDS011;53622;0.000;0.000;2023-07-08T12:05:17;4.75;;;3.63;;
66707;SDS011;53622;0.000;0.000;2023-07-08T12:07:58;4.55;;;3.42;;
66707;SDS011;53622;0.000;0.000;2023-07-08T12:10:32;4.07;;;3.13;;
66707;SDS011;53622;0.000;0.000;2023-07-08T12:13:03;5.95;;;3.22;;
66707;SDS011;53622;0.000;0.000;2023-07-08T12:15:39;6.38;;;3.83;;
66707;SDS011;53622;0.000;0.000;2023-07-08T12:18:13;6.47;;;3.60;;
66707;SDS011;53622;0.000;0.000;2023-07-08T12:20:45;4.10;;;3.10;;
66707;SDS011;53622;0.000;0.000;2023-07-08T12:23:18;4.70;;;3.20;;
66707;SDS011;53622;0.000;0.000;2023-07-08T12:25:49;9.02;;;4.20;;
66707;SDS011;53622;0.000;0.000;2023-07-08T12:28:20;5.45;;;3.47;;
66707;SDS011;53622;0.000;0.000;2023-07-08T12:30:50;4.60;;;2.95;;
66707;SDS011;53622;0.000;0.000;2023-07-08T12:33:25;4.95;;;3.00;;
66707;SDS011;53622;0.000;0.000;2023-07-08T12:35:56;4.00;;;3.10;;
66707;SDS011;53622;0.000;0.000;2023-07-08T12:38:28;5.20;;;2.97;;
66707;SDS011;53622;0.000;0.000;2023-07-08T12:41:01;6.38;;;3.60;;
66707;SDS011;53622;0.000;0.000;2023-07-08T12:43:34;5.38;;;3.10;;
66707;SDS011;53622;0.000;0.000;2023-07-08T12:46:03;3.55;;;3.00;;
66707;SDS011;53622;0.000;0.000;2023-07-08T12:48:35;5.20;;;3.22;;
66707;SDS011;53622;0.000;0.000;2023-07-08T12:51:06;4.00;;;3.30;;
66707;SDS011;53622;0.000;0.000;2023-07-08T12:53:39;3.95;;;3.10;;
66707;SDS011;53622;0.000;0.000;2023-07-08T12:56:10;4.05;;;3.17;;
66707;SDS011;53622;0.000;0.000;2023-07-08T12:58:40;7.60;;;3.33;;
66707;SDS011;53622;0.000;0.000;2023-07-08T13:01:13;4.15;;;3.30;;
66707;SDS011;53622;0.000;0.000;2023-07-08T13:03:47;5.32;;;2.90;;
66707;SDS011;53622;0.000;0.000;2023-07-08T13:06:20;3.38;;;2.80;;
66707;SDS011;53622;0.000;0.000;2023-07-08T13:08:53;3.72;;;3.03;;
66707;SDS011;53622;0.000;0.000;2023-07-08T13:11:27;4.97;;;3.03;;
66707;SDS011;53622;0.000;0.000;2023-07-08T13:13:58;3.75;;;3.03;;
66707;SDS011;53622;0.000;0.000;2023-07-08T13:16:30;5.00;;;3.30;;
66707;SDS011;53622;0.000;0.000;2023-07-08T13:19:03;4.10;;;3.40;;
66707;SDS011;53622;0.000;0.000;2023-07-08T13:21:33;3.90;;;3.03;;
66707;SDS011;53622;0.000;0.000;2023-07-08T13:24:06;4.40;;;3.00;;
66707;SDS011;53622;0.000;0.000;2023-07-08T13:26:37;4.10;;;3.30;;
66707;SDS011;53622;0.000;0.000;2023-07-08T13:29:09;4.07;;;3.30;;
66707;SDS011;53622;0.000;0.000;2023-07-08T13:31:44;5.18;;;3.40;;
66707;SDS011;53622;0.000;0.000;2023-07-08T13:34:18;4.32;;;3.28;;
66707;SDS011;53622;0.000;0.000;2023-07-08T13:36:49;3.97;;;2.95;;
66707;SDS011;53622;0.000;0.000;2023-07-08T13:39:22;3.75;;;3.17;;
66707;SDS011;53622;0.000;0.000;2023-07-08T13:41:54;4.50;;;2.90;;
66707;SDS011;53622;0.000;0.000;2023-07-08T13:44:24;4.00;;;3.17;;
66707;SDS011;53622;0.000;0.000;2023-07-08T13:46:55;6.35;;;3.33;;
66707;SDS011;53622;0.000;0.000;2023-07-08T13:49:28;3.47;;;3.17;;
66707;SDS011;53622;0.000;0.000;2023-07-08T13:52:06;6.25;;;3.47;;
66707;SDS011;53622;0.000;0.000;2023-07-08T13:54:42;8.40;;;3.13;;
66707;SDS011;53622;0.000;0.000;2023-07-08T13:57:16;4.40;;;2.90;;
66707;SDS011;53622;0.000;0.000;2023-07-08T13:59:48;3.88;;;3.08;;
66707;SDS011;53622;0.000;0.000;2023-07-08T14:02:18;5.30;;;3.28;;
66707;SDS011;53622;0.000;0.000;2023-07-08T14:04:51;3.92;;;3.05;;
66707;SDS011;53622;0.000;0.000;2023-07-08T14:07:23;6.47;;;3.10;;
66707;SDS011;53622;0.000;0.000;2023-07-08T14:09:54;2.92;;;2.72;;
66707;SDS011;53622;0.000;0.000;2023-07-08T14:12:23;3.60;;;2.90;;
66707;SDS011;53622;0.000;0.000;2023-07-08T14:14:52;4.32;;;3.00;;
66707;SDS011;53622;0.000;0.000;2023-07-08T14:17:22;4.55;;;3.08;;
66707;SDS011;53622;0.000;0.000;2023-07-08T14:19:55;4.65;;;3.05;;
66707;SDS011;53622;0.000;0.000;2023-07-08T14:22:25;4.45;;;2.88;;
66707;SDS011;53622;0.000;0.000;2023-07-08T14:24:56;3.63;;;3.13;;
66707;SDS011;53622;0.000;0.000;2023-07-08T14:27:30;4.32;;;3.35;;
66707;SDS011;53622;0.000;0.000;2023-07-08T14:29:59;3.28;;;2.85;;
66707;SDS011;53622;0.000;0.000;2023-07-08T14:32:29;3.47;;;2.90;;
66707;SDS011;53622;0.000;0.000;2023-07-08T14:35:02;4.53;;;3.33;;
66707;SDS011;53622;0.000;0.000;2023-07-08T14:37:43;4.28;;;2.95;;
66707;SDS011;53622;0.000;0.000;2023-07-08T14:40:23;3.70;;;2.70;;
66707;SDS011;53622;0.000;0.000;2023-07-08T14:42:58;3.60;;;2.92;;
66707;SDS011;53622;0.000;0.000;2023-07-08T14:45:31;3.65;;;3.10;;
66707;SDS011;53622;0.000;0.000;2023-07-08T14:48:08;5.70;;;2.78;;
66707;SDS011;53622;0.000;0.000;2023-07-08T14:50:39;3.85;;;3.00;;
66707;SDS011;53622;0.000;0.000;2023-07-08T14:53:09;4.55;;;3.08;;
66707;SDS011;53622;0.000;0.000;2023-07-08T14:55:39;3.55;;;2.78;;
66707;SDS011;53622;0.000;0.000;2023-07-08T14:58:08;3.10;;;2.80;;
66707;SDS011;53622;0.000;0.000;2023-07-08T15:00:45;4.25;;;3.05;;
66707;SDS011;53622;0.000;0.000;2023-07-08T15:03:14;4.50;;;3.05;;
66707;SDS011;53622;0.000;0.000;2023-07-08T15:05:45;6.07;;;3.10;;
66707;SDS011;53622;0.000;0.000;2023-07-08T15:08:15;3.53;;;2.80;;
66707;SDS011;53622;0.000;0.000;2023-07-08T15:10:45;5.65;;;2.90;;
66707;SDS011;53622;0.000;0.000;2023-07-08T15:13:17;5.70;;;3.03;;
66707;SDS011;53622;0.000;0.000;2023-07-08T15:15:49;7.05;;;3.17;;
66707;SDS011;53622;0.000;0.000;2023-07-08T15:18:18;4.32;;;3.03;;
66707;SDS011;53622;0.000;0.000;2023-07-08T15:20:49;3.10;;;2.60;;
66707;SDS011;53622;0.000;0.000;2023-07-08T15:23:19;4.40;;;3.25;;
66707;SDS011;53622;0.000;0.000;2023-07-08T15:25:48;4.70;;;2.88;;
66707;SDS011;53622;0.000;0.000;2023-07-08T15:28:19;3.45;;;3.00;;
66707;SDS011;53622;0.000;0.000;2023-07-08T15:31:00;3.65;;;3.05;;
66707;SDS011;53622;0.000;0.000;2023-07-08T15:33:31;4.20;;;2.75;;
66707;SDS011;53622;0.000;0.000;2023-07-08T15:36:02;3.90;;;2.70;;